Terminal Aerodrome Forecast
Issued by NWS Cleveland, OH

Home | Current Version | Previous Version | Graphics & Text | Print | Product List | Glossary On
Versions: 1 2 3 4 5 6 7 8 9 10 11 12 13 14 15 16 17 18 19 20 21 22
000
FTUS41 KCLE 140500
TAFMFD
TAF
KMFD 140520Z 1406/1506 19012G18KT P6SM OVC120 WS012/21040KT
     FM141200 21024G34KT P6SM -SHRA BKN035 OVC080 WS015/21045KT
     FM141600 21024G34KT 6SM -SHRA SCT025 OVC045
     FM142000 24018G28KT 5SM SHRA BR VCTS OVC025CB
     FM142200 24016G24KT 4SM SHRA BR VCTS OVC025CB
     FM150000 24012KT 3SM -SHRA BR OVC015
     FM150300 32008KT 2SM -DZ BR OVC006=

USA.gov is the U.S. government's official web portal to all federal, state and local government web resources and services.